sensor_id;sensor_type;location;lat;lon;timestamp;P1;durP1;ratioP1;P2;durP2;ratioP2
70169;SDS011;57543;45.442;9.212;2022-12-11T00:01:19;35.80;;;14.18;;
70169;SDS011;57543;45.442;9.212;2022-12-11T00:04:24;32.75;;;12.73;;
70169;SDS011;57543;45.442;9.212;2022-12-11T00:07:28;26.83;;;12.00;;
70169;SDS011;57543;45.442;9.212;2022-12-11T00:10:32;25.07;;;10.80;;
70169;SDS011;57543;45.442;9.212;2022-12-11T00:13:36;25.48;;;11.73;;
70169;SDS011;57543;45.442;9.212;2022-12-11T00:16:40;26.65;;;11.45;;
70169;SDS011;57543;45.442;9.212;2022-12-11T00:19:44;23.00;;;11.40;;
70169;SDS011;57543;45.442;9.212;2022-12-11T00:22:47;26.08;;;12.15;;
70169;SDS011;57543;45.442;9.212;2022-12-11T00:25:51;23.43;;;11.07;;
70169;SDS011;57543;45.442;9.212;2022-12-11T00:28:55;22.85;;;10.63;;
70169;SDS011;57543;45.442;9.212;2022-12-11T00:32:00;22.40;;;11.10;;
70169;SDS011;57543;45.442;9.212;2022-12-11T00:35:04;21.75;;;10.57;;
70169;SDS011;57543;45.442;9.212;2022-12-11T00:38:09;22.60;;;10.82;;
70169;SDS011;57543;45.442;9.212;2022-12-11T00:41:18;20.83;;;10.03;;
70169;SDS011;57543;45.442;9.212;2022-12-11T00:44:22;23.02;;;10.65;;
70169;SDS011;57543;45.442;9.212;2022-12-11T00:47:26;19.38;;;9.68;;
70169;SDS011;57543;45.442;9.212;2022-12-11T00:50:30;20.35;;;9.40;;
70169;SDS011;57543;45.442;9.212;2022-12-11T00:53:34;18.63;;;9.63;;
70169;SDS011;57543;45.442;9.212;2022-12-11T00:56:40;19.73;;;9.93;;
70169;SDS011;57543;45.442;9.212;2022-12-11T00:59:44;19.38;;;10.02;;
70169;SDS011;57543;45.442;9.212;2022-12-11T01:02:48;19.25;;;9.73;;
70169;SDS011;57543;45.442;9.212;2022-12-11T01:05:53;20.40;;;9.93;;
70169;SDS011;57543;45.442;9.212;2022-12-11T01:08:58;21.30;;;10.43;;
70169;SDS011;57543;45.442;9.212;2022-12-11T01:12:20;18.90;;;9.70;;
70169;SDS011;57543;45.442;9.212;2022-12-11T01:15:25;20.20;;;9.40;;
70169;SDS011;57543;45.442;9.212;2022-12-11T01:18:33;20.27;;;10.13;;
70169;SDS011;57543;45.442;9.212;2022-12-11T01:21:37;19.60;;;9.38;;
70169;SDS011;57543;45.442;9.212;2022-12-11T01:24:40;20.98;;;10.27;;
70169;SDS011;57543;45.442;9.212;2022-12-11T01:27:44;18.53;;;9.60;;
70169;SDS011;57543;45.442;9.212;2022-12-11T01:30:48;19.80;;;9.27;;
70169;SDS011;57543;45.442;9.212;2022-12-11T01:33:53;16.88;;;9.60;;
70169;SDS011;57543;45.442;9.212;2022-12-11T01:36:57;19.02;;;9.52;;
70169;SDS011;57543;45.442;9.212;2022-12-11T01:40:02;17.38;;;8.55;;
70169;SDS011;57543;45.442;9.212;2022-12-11T01:43:09;18.23;;;9.57;;
70169;SDS011;57543;45.442;9.212;2022-12-11T01:46:13;16.42;;;8.73;;
70169;SDS011;57543;45.442;9.212;2022-12-11T01:49:17;17.48;;;9.10;;
70169;SDS011;57543;45.442;9.212;2022-12-11T01:52:23;18.02;;;9.82;;
70169;SDS011;57543;45.442;9.212;2022-12-11T01:55:27;18.88;;;10.18;;
70169;SDS011;57543;45.442;9.212;2022-12-11T01:58:31;17.50;;;9.27;;
70169;SDS011;57543;45.442;9.212;2022-12-11T02:05:04;18.90;;;9.55;;
70169;SDS011;57543;45.442;9.212;2022-12-11T02:08:09;19.27;;;9.48;;
70169;SDS011;57543;45.442;9.212;2022-12-11T02:11:18;17.13;;;9.45;;
70169;SDS011;57543;45.442;9.212;2022-12-11T02:14:48;17.03;;;9.17;;
70169;SDS011;57543;45.442;9.212;2022-12-11T02:21:23;18.98;;;9.82;;
70169;SDS011;57543;45.442;9.212;2022-12-11T02:31:33;17.17;;;9.13;;
70169;SDS011;57543;45.442;9.212;2022-12-11T02:35:03;19.17;;;8.95;;
70169;SDS011;57543;45.442;9.212;2022-12-11T02:38:26;17.13;;;8.85;;
70169;SDS011;57543;45.442;9.212;2022-12-11T02:41:33;17.17;;;9.18;;
70169;SDS011;57543;45.442;9.212;2022-12-11T02:44:38;16.88;;;9.25;;
70169;SDS011;57543;45.442;9.212;2022-12-11T02:47:46;20.03;;;9.93;;
70169;SDS011;57543;45.442;9.212;2022-12-11T02:50:51;19.10;;;9.65;;
70169;SDS011;57543;45.442;9.212;2022-12-11T02:53:59;18.15;;;9.95;;
70169;SDS011;57543;45.442;9.212;2022-12-11T02:57:07;21.45;;;10.15;;
70169;SDS011;57543;45.442;9.212;2022-12-11T03:00:16;19.83;;;9.23;;
70169;SDS011;57543;45.442;9.212;2022-12-11T03:03:21;19.57;;;10.03;;
70169;SDS011;57543;45.442;9.212;2022-12-11T03:06:26;21.65;;;9.85;;
70169;SDS011;57543;45.442;9.212;2022-12-11T03:09:35;23.85;;;11.40;;
70169;SDS011;57543;45.442;9.212;2022-12-11T03:12:39;23.77;;;10.50;;
70169;SDS011;57543;45.442;9.212;2022-12-11T03:15:48;22.85;;;10.90;;
70169;SDS011;57543;45.442;9.212;2022-12-11T03:22:24;25.45;;;10.88;;
70169;SDS011;57543;45.442;9.212;2022-12-11T03:25:55;25.00;;;11.57;;
70169;SDS011;57543;45.442;9.212;2022-12-11T03:29:02;25.73;;;11.35;;
70169;SDS011;57543;45.442;9.212;2022-12-11T03:32:12;23.73;;;11.45;;
70169;SDS011;57543;45.442;9.212;2022-12-11T03:38:35;28.75;;;12.20;;
70169;SDS011;57543;45.442;9.212;2022-12-11T03:41:43;24.48;;;11.93;;
70169;SDS011;57543;45.442;9.212;2022-12-11T03:44:48;28.98;;;12.35;;
70169;SDS011;57543;45.442;9.212;2022-12-11T03:47:54;26.65;;;11.35;;
70169;SDS011;57543;45.442;9.212;2022-12-11T03:51:00;27.60;;;11.97;;
70169;SDS011;57543;45.442;9.212;2022-12-11T03:54:07;25.13;;;11.45;;
70169;SDS011;57543;45.442;9.212;2022-12-11T03:57:14;25.02;;;11.00;;
70169;SDS011;57543;45.442;9.212;2022-12-11T04:00:20;24.77;;;11.25;;
70169;SDS011;57543;45.442;9.212;2022-12-11T04:03:24;26.15;;;12.20;;
70169;SDS011;57543;45.442;9.212;2022-12-11T04:06:28;26.27;;;11.80;;
70169;SDS011;57543;45.442;9.212;2022-12-11T04:09:31;25.20;;;11.23;;
70169;SDS011;57543;45.442;9.212;2022-12-11T04:12:35;24.98;;;11.73;;
70169;SDS011;57543;45.442;9.212;2022-12-11T04:15:39;26.38;;;11.70;;
70169;SDS011;57543;45.442;9.212;2022-12-11T04:18:43;25.52;;;11.90;;
70169;SDS011;57543;45.442;9.212;2022-12-11T04:22:06;27.17;;;11.90;;
70169;SDS011;57543;45.442;9.212;2022-12-11T04:25:28;27.38;;;12.35;;
70169;SDS011;57543;45.442;9.212;2022-12-11T04:28:31;23.35;;;11.20;;
70169;SDS011;57543;45.442;9.212;2022-12-11T04:31:35;24.20;;;11.20;;
70169;SDS011;57543;45.442;9.212;2022-12-11T04:34:39;26.25;;;11.23;;
70169;SDS011;57543;45.442;9.212;2022-12-11T04:37:42;27.00;;;11.83;;
70169;SDS011;57543;45.442;9.212;2022-12-11T04:40:46;23.92;;;10.38;;
70169;SDS011;57543;45.442;9.212;2022-12-11T04:43:50;21.85;;;11.25;;
70169;SDS011;57543;45.442;9.212;2022-12-11T04:46:54;24.77;;;11.70;;
70169;SDS011;57543;45.442;9.212;2022-12-11T04:49:58;21.95;;;10.75;;
70169;SDS011;57543;45.442;9.212;2022-12-11T04:53:01;24.40;;;11.60;;
70169;SDS011;57543;45.442;9.212;2022-12-11T04:56:06;24.25;;;11.70;;
70169;SDS011;57543;45.442;9.212;2022-12-11T04:59:11;24.15;;;10.88;;
70169;SDS011;57543;45.442;9.212;2022-12-11T05:02:14;24.02;;;11.57;;
70169;SDS011;57543;45.442;9.212;2022-12-11T05:05:18;23.92;;;11.48;;
70169;SDS011;57543;45.442;9.212;2022-12-11T05:08:22;25.53;;;11.70;;
70169;SDS011;57543;45.442;9.212;2022-12-11T05:11:26;22.75;;;11.38;;
70169;SDS011;57543;45.442;9.212;2022-12-11T05:14:30;25.30;;;11.77;;
70169;SDS011;57543;45.442;9.212;2022-12-11T05:17:34;25.27;;;11.27;;
70169;SDS011;57543;45.442;9.212;2022-12-11T05:20:38;24.05;;;11.35;;
70169;SDS011;57543;45.442;9.212;2022-12-11T05:23:42;27.00;;;10.73;;
70169;SDS011;57543;45.442;9.212;2022-12-11T05:26:46;21.95;;;10.82;;
70169;SDS011;57543;45.442;9.212;2022-12-11T05:29:50;22.95;;;10.82;;
70169;SDS011;57543;45.442;9.212;2022-12-11T05:32:53;22.85;;;11.02;;
70169;SDS011;57543;45.442;9.212;2022-12-11T05:35:57;22.27;;;10.57;;
70169;SDS011;57543;45.442;9.212;2022-12-11T05:39:01;22.57;;;10.87;;
70169;SDS011;57543;45.442;9.212;2022-12-11T05:42:06;21.50;;;10.15;;
70169;SDS011;57543;45.442;9.212;2022-12-11T05:45:09;23.55;;;10.07;;
70169;SDS011;57543;45.442;9.212;2022-12-11T05:48:13;22.85;;;10.48;;
70169;SDS011;57543;45.442;9.212;2022-12-11T05:51:17;21.13;;;10.50;;
70169;SDS011;57543;45.442;9.212;2022-12-11T05:54:21;21.27;;;10.80;;
70169;SDS011;57543;45.442;9.212;2022-12-11T05:57:25;21.52;;;10.52;;
70169;SDS011;57543;45.442;9.212;2022-12-11T06:00:28;20.58;;;10.55;;
70169;SDS011;57543;45.442;9.212;2022-12-11T06:03:32;18.83;;;9.25;;
70169;SDS011;57543;45.442;9.212;2022-12-11T06:06:36;19.88;;;9.55;;
70169;SDS011;57543;45.442;9.212;2022-12-11T06:09:40;20.37;;;10.03;;
70169;SDS011;57543;45.442;9.212;2022-12-11T06:12:44;19.70;;;9.85;;
70169;SDS011;57543;45.442;9.212;2022-12-11T06:15:47;20.73;;;10.68;;
70169;SDS011;57543;45.442;9.212;2022-12-11T06:18:51;18.95;;;9.05;;
70169;SDS011;57543;45.442;9.212;2022-12-11T06:21:54;21.10;;;9.93;;
70169;SDS011;57543;45.442;9.212;2022-12-11T06:24:58;17.50;;;9.23;;
70169;SDS011;57543;45.442;9.212;2022-12-11T06:28:01;17.52;;;9.45;;
70169;SDS011;57543;45.442;9.212;2022-12-11T06:31:05;20.80;;;9.52;;
70169;SDS011;57543;45.442;9.212;2022-12-11T06:34:10;19.38;;;9.98;;
70169;SDS011;57543;45.442;9.212;2022-12-11T06:37:15;20.55;;;10.00;;
70169;SDS011;57543;45.442;9.212;2022-12-11T06:40:18;19.97;;;9.50;;
70169;SDS011;57543;45.442;9.212;2022-12-11T06:43:22;20.88;;;9.18;;
70169;SDS011;57543;45.442;9.212;2022-12-11T06:46:27;17.63;;;9.35;;
70169;SDS011;57543;45.442;9.212;2022-12-11T06:49:30;16.98;;;9.90;;
70169;SDS011;57543;45.442;9.212;2022-12-11T06:52:34;19.90;;;9.80;;
70169;SDS011;57543;45.442;9.212;2022-12-11T06:55:37;19.13;;;9.83;;
70169;SDS011;57543;45.442;9.212;2022-12-11T06:58:41;16.92;;;8.88;;
70169;SDS011;57543;45.442;9.212;2022-12-11T07:01:46;18.58;;;10.00;;
70169;SDS011;57543;45.442;9.212;2022-12-11T07:04:49;18.42;;;9.05;;
70169;SDS011;57543;45.442;9.212;2022-12-11T07:07:53;19.20;;;9.70;;
70169;SDS011;57543;45.442;9.212;2022-12-11T07:11:07;18.00;;;9.47;;
70169;SDS011;57543;45.442;9.212;2022-12-11T07:14:16;18.77;;;8.68;;
70169;SDS011;57543;45.442;9.212;2022-12-11T07:17:20;19.08;;;9.82;;
70169;SDS011;57543;45.442;9.212;2022-12-11T07:20:23;19.95;;;9.90;;
70169;SDS011;57543;45.442;9.212;2022-12-11T07:23:27;17.63;;;9.32;;
70169;SDS011;57543;45.442;9.212;2022-12-11T07:26:31;19.77;;;9.70;;
70169;SDS011;57543;45.442;9.212;2022-12-11T07:29:35;21.95;;;9.88;;
70169;SDS011;57543;45.442;9.212;2022-12-11T07:32:38;20.25;;;9.77;;
70169;SDS011;57543;45.442;9.212;2022-12-11T07:35:42;18.55;;;9.63;;
70169;SDS011;57543;45.442;9.212;2022-12-11T07:38:46;19.33;;;9.88;;
70169;SDS011;57543;45.442;9.212;2022-12-11T07:41:50;20.23;;;10.40;;
70169;SDS011;57543;45.442;9.212;2022-12-11T07:44:55;19.40;;;9.75;;
70169;SDS011;57543;45.442;9.212;2022-12-11T07:47:59;19.73;;;9.90;;
70169;SDS011;57543;45.442;9.212;2022-12-11T07:51:09;20.15;;;9.95;;
70169;SDS011;57543;45.442;9.212;2022-12-11T07:54:17;17.55;;;9.15;;
70169;SDS011;57543;45.442;9.212;2022-12-11T07:57:20;17.23;;;9.77;;
70169;SDS011;57543;45.442;9.212;2022-12-11T08:00:24;18.70;;;9.65;;
70169;SDS011;57543;45.442;9.212;2022-12-11T08:03:29;16.25;;;8.80;;
70169;SDS011;57543;45.442;9.212;2022-12-11T08:06:34;18.30;;;9.40;;
70169;SDS011;57543;45.442;9.212;2022-12-11T08:09:41;13.75;;;8.40;;
70169;SDS011;57543;45.442;9.212;2022-12-11T08:12:44;16.53;;;9.07;;
70169;SDS011;57543;45.442;9.212;2022-12-11T08:15:47;15.40;;;7.80;;
70169;SDS011;57543;45.442;9.212;2022-12-11T08:18:51;13.32;;;7.90;;
70169;SDS011;57543;45.442;9.212;2022-12-11T08:21:55;14.93;;;8.00;;
70169;SDS011;57543;45.442;9.212;2022-12-11T08:24:58;13.63;;;7.88;;
70169;SDS011;57543;45.442;9.212;2022-12-11T08:28:03;14.43;;;8.10;;
70169;SDS011;57543;45.442;9.212;2022-12-11T08:31:09;12.43;;;7.20;;
70169;SDS011;57543;45.442;9.212;2022-12-11T08:34:14;12.88;;;7.40;;
70169;SDS011;57543;45.442;9.212;2022-12-11T08:37:18;12.38;;;7.45;;
70169;SDS011;57543;45.442;9.212;2022-12-11T08:40:21;13.70;;;6.95;;
70169;SDS011;57543;45.442;9.212;2022-12-11T08:43:25;14.07;;;7.50;;
70169;SDS011;57543;45.442;9.212;2022-12-11T08:46:30;12.93;;;7.97;;
70169;SDS011;57543;45.442;9.212;2022-12-11T08:49:35;13.13;;;7.50;;
70169;SDS011;57543;45.442;9.212;2022-12-11T08:52:39;11.77;;;7.10;;
70169;SDS011;57543;45.442;9.212;2022-12-11T08:55:42;10.98;;;6.55;;
70169;SDS011;57543;45.442;9.212;2022-12-11T08:58:46;8.87;;;5.40;;
70169;SDS011;57543;45.442;9.212;2022-12-11T09:01:50;10.55;;;5.95;;
70169;SDS011;57543;45.442;9.212;2022-12-11T09:04:54;9.75;;;6.47;;
70169;SDS011;57543;45.442;9.212;2022-12-11T09:07:57;11.15;;;6.72;;
70169;SDS011;57543;45.442;9.212;2022-12-11T09:11:05;12.55;;;6.82;;
70169;SDS011;57543;45.442;9.212;2022-12-11T09:14:10;11.83;;;7.53;;
70169;SDS011;57543;45.442;9.212;2022-12-11T09:17:14;13.73;;;7.40;;
70169;SDS011;57543;45.442;9.212;2022-12-11T09:20:18;11.90;;;7.15;;
70169;SDS011;57543;45.442;9.212;2022-12-11T09:23:21;13.00;;;7.75;;
70169;SDS011;57543;45.442;9.212;2022-12-11T09:26:25;11.43;;;7.57;;
70169;SDS011;57543;45.442;9.212;2022-12-11T09:29:30;12.07;;;7.70;;
70169;SDS011;57543;45.442;9.212;2022-12-11T09:32:34;12.05;;;7.80;;
70169;SDS011;57543;45.442;9.212;2022-12-11T09:35:37;13.45;;;7.68;;
70169;SDS011;57543;45.442;9.212;2022-12-11T09:38:41;11.15;;;7.28;;
70169;SDS011;57543;45.442;9.212;2022-12-11T09:41:52;12.10;;;7.72;;
70169;SDS011;57543;45.442;9.212;2022-12-11T09:45:16;12.27;;;7.77;;
70169;SDS011;57543;45.442;9.212;2022-12-11T09:48:20;12.68;;;7.65;;
70169;SDS011;57543;45.442;9.212;2022-12-11T09:54:51;14.02;;;7.82;;
70169;SDS011;57543;45.442;9.212;2022-12-11T09:58:12;12.07;;;7.40;;
70169;SDS011;57543;45.442;9.212;2022-12-11T10:05:19;14.32;;;8.30;;
70169;SDS011;57543;45.442;9.212;2022-12-11T10:09:01;14.15;;;8.32;;
70169;SDS011;57543;45.442;9.212;2022-12-11T10:12:28;13.52;;;7.50;;
70169;SDS011;57543;45.442;9.212;2022-12-11T10:15:48;12.85;;;8.25;;
70169;SDS011;57543;45.442;9.212;2022-12-11T10:18:58;13.67;;;8.93;;
70169;SDS011;57543;45.442;9.212;2022-12-11T10:22:02;13.45;;;8.25;;
70169;SDS011;57543;45.442;9.212;2022-12-11T10:25:06;14.02;;;8.40;;
70169;SDS011;57543;45.442;9.212;2022-12-11T10:28:16;14.43;;;8.52;;
70169;SDS011;57543;45.442;9.212;2022-12-11T10:34:44;13.93;;;8.63;;
70169;SDS011;57543;45.442;9.212;2022-12-11T10:37:53;15.57;;;8.25;;
70169;SDS011;57543;45.442;9.212;2022-12-11T10:41:12;14.77;;;8.32;;
70169;SDS011;57543;45.442;9.212;2022-12-11T10:44:37;13.07;;;8.57;;
70169;SDS011;57543;45.442;9.212;2022-12-11T10:47:41;18.30;;;9.32;;
70169;SDS011;57543;45.442;9.212;2022-12-11T10:50:53;14.77;;;9.07;;
70169;SDS011;57543;45.442;9.212;2022-12-11T10:54:16;13.68;;;8.07;;
70169;SDS011;57543;45.442;9.212;2022-12-11T10:57:33;15.27;;;8.95;;
70169;SDS011;57543;45.442;9.212;2022-12-11T11:00:38;15.23;;;8.32;;
70169;SDS011;57543;45.442;9.212;2022-12-11T11:07:26;11.57;;;7.60;;
70169;SDS011;57543;45.442;9.212;2022-12-11T11:10:31;12.65;;;8.05;;
70169;SDS011;57543;45.442;9.212;2022-12-11T11:13:38;12.85;;;7.22;;
70169;SDS011;57543;45.442;9.212;2022-12-11T11:16:43;12.95;;;7.32;;
70169;SDS011;57543;45.442;9.212;2022-12-11T11:19:49;10.63;;;6.45;;
70169;SDS011;57543;45.442;9.212;2022-12-11T11:22:56;10.07;;;6.93;;
70169;SDS011;57543;45.442;9.212;2022-12-11T11:26:05;10.55;;;6.47;;
70169;SDS011;57543;45.442;9.212;2022-12-11T11:29:18;11.30;;;6.43;;
70169;SDS011;57543;45.442;9.212;2022-12-11T11:32:36;10.73;;;6.43;;
70169;SDS011;57543;45.442;9.212;2022-12-11T11:35:50;11.00;;;7.18;;
70169;SDS011;57543;45.442;9.212;2022-12-11T11:39:03;9.37;;;6.00;;
70169;SDS011;57543;45.442;9.212;2022-12-11T11:42:19;10.23;;;5.75;;
70169;SDS011;57543;45.442;9.212;2022-12-11T11:45:35;10.65;;;6.28;;
70169;SDS011;57543;45.442;9.212;2022-12-11T11:49:12;11.85;;;7.47;;
70169;SDS011;57543;45.442;9.212;2022-12-11T11:52:40;9.48;;;5.63;;
70169;SDS011;57543;45.442;9.212;2022-12-11T11:55:53;14.33;;;6.60;;
70169;SDS011;57543;45.442;9.212;2022-12-11T11:59:22;10.05;;;6.00;;
70169;SDS011;57543;45.442;9.212;2022-12-11T12:02:33;9.30;;;5.82;;
70169;SDS011;57543;45.442;9.212;2022-12-11T12:08:55;9.98;;;5.80;;
70169;SDS011;57543;45.442;9.212;2022-12-11T12:15:50;10.02;;;5.28;;
70169;SDS011;57543;45.442;9.212;2022-12-11T12:19:00;13.15;;;5.75;;
70169;SDS011;57543;45.442;9.212;2022-12-11T12:25:34;10.18;;;6.03;;
70169;SDS011;57543;45.442;9.212;2022-12-11T12:39:35;11.98;;;5.63;;
70169;SDS011;57543;45.442;9.212;2022-12-11T12:42:58;11.55;;;6.32;;
70169;SDS011;57543;45.442;9.212;2022-12-11T12:50:05;10.43;;;5.75;;
70169;SDS011;57543;45.442;9.212;2022-12-11T12:53:18;9.80;;;6.03;;
70169;SDS011;57543;45.442;9.212;2022-12-11T12:56:25;10.40;;;6.22;;
70169;SDS011;57543;45.442;9.212;2022-12-11T12:59:31;10.50;;;6.07;;
70169;SDS011;57543;45.442;9.212;2022-12-11T13:02:36;9.67;;;5.37;;
70169;SDS011;57543;45.442;9.212;2022-12-11T13:05:57;13.45;;;5.70;;
70169;SDS011;57543;45.442;9.212;2022-12-11T13:09:17;10.68;;;5.28;;
70169;SDS011;57543;45.442;9.212;2022-12-11T13:12:32;11.27;;;5.65;;
70169;SDS011;57543;45.442;9.212;2022-12-11T13:15:47;9.60;;;5.63;;
70169;SDS011;57543;45.442;9.212;2022-12-11T13:18:51;9.37;;;5.40;;
70169;SDS011;57543;45.442;9.212;2022-12-11T13:25:27;11.15;;;5.85;;
70169;SDS011;57543;45.442;9.212;2022-12-11T13:31:54;10.73;;;6.60;;
70169;SDS011;57543;45.442;9.212;2022-12-11T13:35:03;10.20;;;6.37;;
70169;SDS011;57543;45.442;9.212;2022-12-11T13:38:16;11.63;;;6.30;;
70169;SDS011;57543;45.442;9.212;2022-12-11T13:41:22;10.10;;;5.47;;
70169;SDS011;57543;45.442;9.212;2022-12-11T13:44:28;8.90;;;5.28;;
70169;SDS011;57543;45.442;9.212;2022-12-11T13:47:54;9.05;;;5.03;;
70169;SDS011;57543;45.442;9.212;2022-12-11T13:50:59;8.37;;;4.70;;
70169;SDS011;57543;45.442;9.212;2022-12-11T13:54:05;9.13;;;5.22;;
70169;SDS011;57543;45.442;9.212;2022-12-11T13:57:16;9.27;;;5.50;;
70169;SDS011;57543;45.442;9.212;2022-12-11T14:00:24;9.32;;;5.80;;
70169;SDS011;57543;45.442;9.212;2022-12-11T14:03:32;8.38;;;5.20;;
70169;SDS011;57543;45.442;9.212;2022-12-11T14:06:37;9.63;;;5.77;;
70169;SDS011;57543;45.442;9.212;2022-12-11T14:09:42;9.82;;;5.47;;
70169;SDS011;57543;45.442;9.212;2022-12-11T14:12:50;9.85;;;5.80;;
70169;SDS011;57543;45.442;9.212;2022-12-11T14:15:55;10.55;;;6.22;;
70169;SDS011;57543;45.442;9.212;2022-12-11T14:19:04;10.70;;;6.13;;
70169;SDS011;57543;45.442;9.212;2022-12-11T14:22:15;9.30;;;5.30;;
70169;SDS011;57543;45.442;9.212;2022-12-11T14:25:23;11.30;;;6.20;;
70169;SDS011;57543;45.442;9.212;2022-12-11T14:28:29;9.50;;;5.70;;
70169;SDS011;57543;45.442;9.212;2022-12-11T14:31:40;9.77;;;5.53;;
70169;SDS011;57543;45.442;9.212;2022-12-11T14:34:45;10.07;;;5.72;;
70169;SDS011;57543;45.442;9.212;2022-12-11T14:37:52;9.83;;;5.40;;
70169;SDS011;57543;45.442;9.212;2022-12-11T14:41:09;8.90;;;5.43;;
70169;SDS011;57543;45.442;9.212;2022-12-11T14:44:45;8.65;;;5.35;;
70169;SDS011;57543;45.442;9.212;2022-12-11T14:47:52;8.98;;;5.43;;
70169;SDS011;57543;45.442;9.212;2022-12-11T14:50:58;10.07;;;5.95;;
70169;SDS011;57543;45.442;9.212;2022-12-11T14:54:03;9.37;;;5.20;;
70169;SDS011;57543;45.442;9.212;2022-12-11T14:57:12;9.77;;;5.10;;
70169;SDS011;57543;45.442;9.212;2022-12-11T15:03:29;8.88;;;5.05;;
70169;SDS011;57543;45.442;9.212;2022-12-11T15:06:42;9.07;;;6.22;;
70169;SDS011;57543;45.442;9.212;2022-12-11T15:09:47;8.80;;;6.03;;
70169;SDS011;57543;45.442;9.212;2022-12-11T15:12:53;9.60;;;5.90;;
70169;SDS011;57543;45.442;9.212;2022-12-11T15:15:57;10.77;;;6.18;;
70169;SDS011;57543;45.442;9.212;2022-12-11T15:19:05;10.18;;;6.47;;
70169;SDS011;57543;45.442;9.212;2022-12-11T15:22:11;11.88;;;6.50;;
70169;SDS011;57543;45.442;9.212;2022-12-11T15:25:21;10.37;;;5.83;;
70169;SDS011;57543;45.442;9.212;2022-12-11T15:28:27;9.63;;;6.38;;
70169;SDS011;57543;45.442;9.212;2022-12-11T15:31:34;10.02;;;5.88;;
70169;SDS011;57543;45.442;9.212;2022-12-11T15:34:41;12.25;;;6.00;;
70169;SDS011;57543;45.442;9.212;2022-12-11T15:38:02;10.70;;;6.03;;
70169;SDS011;57543;45.442;9.212;2022-12-11T15:41:12;12.50;;;6.10;;
70169;SDS011;57543;45.442;9.212;2022-12-11T15:44:18;9.90;;;5.85;;
70169;SDS011;57543;45.442;9.212;2022-12-11T15:47:28;11.70;;;6.85;;
70169;SDS011;57543;45.442;9.212;2022-12-11T15:50:32;11.38;;;5.32;;
70169;SDS011;57543;45.442;9.212;2022-12-11T15:53:36;10.23;;;5.05;;
70169;SDS011;57543;45.442;9.212;2022-12-11T15:56:40;8.87;;;5.50;;
70169;SDS011;57543;45.442;9.212;2022-12-11T15:59:44;10.30;;;5.53;;
70169;SDS011;57543;45.442;9.212;2022-12-11T16:02:51;10.07;;;5.72;;
70169;SDS011;57543;45.442;9.212;2022-12-11T16:05:54;10.45;;;6.00;;
70169;SDS011;57543;45.442;9.212;2022-12-11T16:08:58;10.68;;;5.78;;
70169;SDS011;57543;45.442;9.212;2022-12-11T16:12:02;9.57;;;5.33;;
70169;SDS011;57543;45.442;9.212;2022-12-11T16:15:06;8.00;;;4.80;;
70169;SDS011;57543;45.442;9.212;2022-12-11T16:18:18;9.27;;;5.07;;
70169;SDS011;57543;45.442;9.212;2022-12-11T16:21:26;9.63;;;5.10;;
70169;SDS011;57543;45.442;9.212;2022-12-11T16:24:30;8.75;;;5.10;;
70169;SDS011;57543;45.442;9.212;2022-12-11T16:27:35;8.87;;;4.70;;
70169;SDS011;57543;45.442;9.212;2022-12-11T16:30:39;9.02;;;5.15;;
70169;SDS011;57543;45.442;9.212;2022-12-11T16:33:43;8.95;;;5.47;;
70169;SDS011;57543;45.442;9.212;2022-12-11T16:36:47;12.43;;;6.60;;
70169;SDS011;57543;45.442;9.212;2022-12-11T16:39:51;16.27;;;7.97;;
70169;SDS011;57543;45.442;9.212;2022-12-11T16:42:55;19.43;;;8.50;;
70169;SDS011;57543;45.442;9.212;2022-12-11T16:45:59;16.25;;;8.27;;
70169;SDS011;57543;45.442;9.212;2022-12-11T16:49:03;19.33;;;9.60;;
70169;SDS011;57543;45.442;9.212;2022-12-11T16:52:07;13.93;;;8.05;;
70169;SDS011;57543;45.442;9.212;2022-12-11T16:55:11;11.95;;;7.50;;
70169;SDS011;57543;45.442;9.212;2022-12-11T16:58:15;11.40;;;7.10;;
70169;SDS011;57543;45.442;9.212;2022-12-11T17:01:22;10.65;;;6.28;;
70169;SDS011;57543;45.442;9.212;2022-12-11T17:04:26;10.68;;;6.10;;
70169;SDS011;57543;45.442;9.212;2022-12-11T17:07:31;8.90;;;5.30;;
70169;SDS011;57543;45.442;9.212;2022-12-11T17:10:39;9.38;;;5.22;;
70169;SDS011;57543;45.442;9.212;2022-12-11T17:13:44;9.93;;;5.50;;
70169;SDS011;57543;45.442;9.212;2022-12-11T17:16:48;8.27;;;5.18;;
70169;SDS011;57543;45.442;9.212;2022-12-11T17:19:52;11.68;;;6.60;;
70169;SDS011;57543;45.442;9.212;2022-12-11T17:22:56;10.68;;;6.15;;
70169;SDS011;57543;45.442;9.212;2022-12-11T17:26:00;10.43;;;5.88;;
70169;SDS011;57543;45.442;9.212;2022-12-11T17:29:05;9.97;;;5.90;;
70169;SDS011;57543;45.442;9.212;2022-12-11T17:32:08;8.73;;;6.13;;
70169;SDS011;57543;45.442;9.212;2022-12-11T17:35:13;13.40;;;7.70;;
70169;SDS011;57543;45.442;9.212;2022-12-11T17:38:17;11.18;;;6.80;;
70169;SDS011;57543;45.442;9.212;2022-12-11T17:41:21;12.48;;;7.00;;
70169;SDS011;57543;45.442;9.212;2022-12-11T17:44:25;13.20;;;8.90;;
70169;SDS011;57543;45.442;9.212;2022-12-11T17:47:32;11.75;;;7.25;;
70169;SDS011;57543;45.442;9.212;2022-12-11T17:50:39;14.15;;;8.40;;
70169;SDS011;57543;45.442;9.212;2022-12-11T17:53:45;13.63;;;8.57;;
70169;SDS011;57543;45.442;9.212;2022-12-11T17:56:49;14.05;;;7.70;;
70169;SDS011;57543;45.442;9.212;2022-12-11T17:59:53;11.67;;;7.53;;
70169;SDS011;57543;45.442;9.212;2022-12-11T18:02:57;11.65;;;7.18;;
70169;SDS011;57543;45.442;9.212;2022-12-11T18:06:05;12.25;;;7.70;;
70169;SDS011;57543;45.442;9.212;2022-12-11T18:09:12;17.15;;;8.55;;
70169;SDS011;57543;45.442;9.212;2022-12-11T18:12:15;12.32;;;7.65;;
70169;SDS011;57543;45.442;9.212;2022-12-11T18:15:19;12.83;;;8.20;;
70169;SDS011;57543;45.442;9.212;2022-12-11T18:18:22;13.43;;;8.07;;
70169;SDS011;57543;45.442;9.212;2022-12-11T18:21:28;14.60;;;9.50;;
70169;SDS011;57543;45.442;9.212;2022-12-11T18:24:34;13.93;;;8.63;;
70169;SDS011;57543;45.442;9.212;2022-12-11T18:27:37;11.73;;;7.55;;
70169;SDS011;57543;45.442;9.212;2022-12-11T18:30:41;10.13;;;6.50;;
70169;SDS011;57543;45.442;9.212;2022-12-11T18:33:45;12.57;;;7.05;;
70169;SDS011;57543;45.442;9.212;2022-12-11T18:36:48;11.80;;;6.85;;
70169;SDS011;57543;45.442;9.212;2022-12-11T18:39:52;11.85;;;7.68;;
70169;SDS011;57543;45.442;9.212;2022-12-11T18:42:56;14.40;;;8.07;;
70169;SDS011;57543;45.442;9.212;2022-12-11T18:46:03;15.37;;;8.07;;
70169;SDS011;57543;45.442;9.212;2022-12-11T18:49:10;12.27;;;8.25;;
70169;SDS011;57543;45.442;9.212;2022-12-11T18:52:14;13.63;;;8.15;;
70169;SDS011;57543;45.442;9.212;2022-12-11T18:55:18;13.40;;;8.48;;
70169;SDS011;57543;45.442;9.212;2022-12-11T18:58:22;14.05;;;7.40;;
70169;SDS011;57543;45.442;9.212;2022-12-11T19:01:26;11.93;;;7.60;;
70169;SDS011;57543;45.442;9.212;2022-12-11T19:04:32;13.48;;;7.55;;
70169;SDS011;57543;45.442;9.212;2022-12-11T19:07:36;13.65;;;8.23;;
70169;SDS011;57543;45.442;9.212;2022-12-11T19:10:45;12.27;;;7.68;;
70169;SDS011;57543;45.442;9.212;2022-12-11T19:13:50;12.63;;;7.65;;
70169;SDS011;57543;45.442;9.212;2022-12-11T19:16:55;11.77;;;7.37;;
70169;SDS011;57543;45.442;9.212;2022-12-11T19:19:59;12.48;;;7.55;;
70169;SDS011;57543;45.442;9.212;2022-12-11T19:23:03;14.55;;;8.45;;
70169;SDS011;57543;45.442;9.212;2022-12-11T19:26:12;12.73;;;8.50;;
70169;SDS011;57543;45.442;9.212;2022-12-11T19:29:19;11.75;;;7.10;;
70169;SDS011;57543;45.442;9.212;2022-12-11T19:32:31;12.97;;;7.07;;
70169;SDS011;57543;45.442;9.212;2022-12-11T19:35:34;11.48;;;7.22;;
70169;SDS011;57543;45.442;9.212;2022-12-11T19:38:39;11.63;;;7.05;;